createdAt,value
2023-04-26T00:00:31.493Z,6.60
2023-04-26T00:03:05.019Z,6.70
2023-04-26T00:05:39.183Z,6.70
2023-04-26T00:08:11.716Z,6.70
2023-04-26T00:10:43.920Z,6.60
2023-04-26T00:13:16.109Z,6.60
2023-04-26T00:15:48.072Z,6.60
2023-04-26T00:18:20.432Z,6.60
2023-04-26T00:20:52.597Z,6.60
2023-04-26T00:23:48.781Z,6.60
2023-04-26T00:26:21.862Z,6.60
2023-04-26T00:28:54.253Z,6.50
2023-04-26T00:31:27.027Z,6.50
2023-04-26T00:33:59.303Z,6.50
2023-04-26T00:36:32.846Z,6.50
2023-04-26T00:39:05.048Z,6.50
2023-04-26T00:41:37.545Z,6.40
2023-04-26T00:44:09.774Z,6.40
2023-04-26T00:46:42.030Z,6.40
2023-04-26T00:49:18.011Z,6.30
2023-04-26T00:51:54.051Z,6.30
2023-04-26T00:54:27.011Z,6.30
2023-04-26T00:56:59.583Z,6.30
2023-04-26T00:59:31.766Z,6.20
2023-04-26T01:02:07.066Z,6.20
2023-04-26T01:04:41.894Z,6.20
2023-04-26T01:07:16.318Z,6.20
2023-04-26T01:09:49.712Z,6.10
2023-04-26T01:12:24.298Z,6.10
2023-04-26T01:14:57.972Z,6.20
2023-04-26T01:17:31.056Z,6.10
2023-04-26T01:20:04.854Z,6.10
2023-04-26T01:22:37.518Z,6.10
2023-04-26T01:25:12.354Z,6.10
2023-04-26T01:27:44.666Z,6.00
2023-04-26T01:30:17.523Z,6.00
2023-04-26T01:32:50.023Z,6.00
2023-04-26T01:35:22.709Z,5.90
2023-04-26T01:37:54.791Z,5.90
2023-04-26T01:40:26.869Z,5.80
2023-04-26T01:42:58.909Z,5.80
2023-04-26T01:45:31.362Z,5.80
2023-04-26T01:48:03.699Z,5.70
2023-04-26T01:50:36.110Z,5.70
2023-04-26T01:53:08.130Z,5.70
2023-04-26T01:55:40.082Z,5.70
2023-04-26T01:58:12.189Z,5.70
2023-04-26T02:00:44.470Z,5.60
2023-04-26T02:03:17.273Z,5.60
2023-04-26T02:05:49.348Z,5.50
2023-04-26T02:08:21.479Z,5.60
2023-04-26T02:10:53.539Z,5.50
2023-04-26T02:13:26.078Z,5.50
2023-04-26T02:15:59.473Z,5.60
2023-04-26T02:18:50.538Z,5.50
2023-04-26T02:21:24.087Z,5.60
2023-04-26T02:23:56.202Z,5.60
2023-04-26T02:26:28.421Z,5.50
2023-04-26T02:29:00.602Z,5.60
2023-04-26T02:31:32.702Z,5.50
2023-04-26T02:34:04.940Z,5.50
2023-04-26T02:36:37.383Z,5.50
2023-04-26T02:39:10.021Z,5.50
2023-04-26T02:41:42.823Z,5.50
2023-04-26T02:44:14.913Z,5.50
2023-04-26T02:46:47.032Z,5.50
2023-04-26T02:49:19.171Z,5.40
2023-04-26T02:51:51.526Z,5.40
2023-04-26T02:54:23.759Z,5.50
2023-04-26T02:56:55.823Z,5.50
2023-04-26T02:59:28.965Z,5.50
2023-04-26T03:02:01.070Z,5.50
2023-04-26T03:04:36.904Z,5.50
2023-04-26T03:07:09.292Z,5.50
2023-04-26T03:09:41.396Z,5.50
2023-04-26T03:12:13.484Z,5.50
2023-04-26T03:14:45.566Z,5.50
2023-04-26T03:17:17.715Z,5.50
2023-04-26T03:19:49.702Z,5.40
2023-04-26T03:22:21.725Z,5.40
2023-04-26T03:24:53.753Z,5.40
2023-04-26T03:27:25.850Z,5.30
2023-04-26T03:29:57.918Z,5.30
2023-04-26T03:32:30.347Z,5.30
2023-04-26T03:35:02.891Z,5.30
2023-04-26T03:37:36.112Z,5.30
2023-04-26T03:40:10.829Z,5.20
2023-04-26T03:42:42.971Z,5.20
2023-04-26T03:45:14.904Z,5.10
2023-04-26T03:47:47.444Z,5.10
2023-04-26T03:50:19.967Z,5.10
2023-04-26T03:52:52.234Z,5.00
2023-04-26T03:55:24.795Z,4.90
2023-04-26T03:57:57.154Z,4.90
2023-04-26T04:00:29.316Z,4.80
2023-04-26T04:03:59.728Z,4.80
2023-04-26T04:06:35.822Z,4.70
2023-04-26T04:09:09.167Z,4.60
2023-04-26T04:11:41.230Z,4.60
2023-04-26T04:14:13.368Z,4.50
2023-04-26T04:16:45.449Z,4.40
2023-04-26T04:19:17.786Z,4.40
2023-04-26T04:21:50.031Z,4.30
2023-04-26T04:24:22.691Z,4.30
2023-04-26T04:26:56.062Z,4.30
2023-04-26T04:29:28.156Z,4.30
2023-04-26T04:32:00.982Z,4.30
2023-04-26T04:34:36.400Z,4.30
2023-04-26T04:37:09.002Z,4.20
2023-04-26T04:39:42.409Z,4.20
2023-04-26T04:42:15.412Z,4.30
2023-04-26T04:44:47.787Z,4.30
2023-04-26T04:47:21.045Z,4.30
2023-04-26T04:49:53.906Z,4.30
2023-04-26T04:52:26.234Z,4.30
2023-04-26T04:54:58.673Z,4.40
2023-04-26T04:57:33.111Z,4.40
2023-04-26T05:00:12.718Z,4.40
2023-04-26T05:02:46.290Z,4.40
2023-04-26T05:05:18.683Z,4.50
2023-04-26T05:07:50.939Z,4.50
2023-04-26T05:10:23.169Z,4.60
2023-04-26T05:12:55.779Z,4.70
2023-04-26T05:15:28.196Z,4.80
2023-04-26T05:18:00.982Z,4.90
2023-04-26T05:20:33.207Z,5.00
2023-04-26T05:23:05.330Z,5.10
2023-04-26T05:25:38.202Z,5.20
2023-04-26T05:28:12.894Z,5.20
2023-04-26T05:30:46.361Z,5.30
2023-04-26T05:33:18.830Z,5.30
2023-04-26T05:35:51.081Z,5.30
2023-04-26T05:38:25.820Z,5.40
2023-04-26T05:40:58.201Z,5.40
2023-04-26T05:43:30.315Z,5.40
2023-04-26T05:46:02.702Z,5.40
2023-04-26T05:48:35.403Z,5.60
2023-04-26T05:51:07.446Z,5.60
2023-04-26T05:53:39.731Z,5.70
2023-04-26T05:56:12.582Z,5.80
2023-04-26T05:58:44.603Z,5.80
2023-04-26T06:01:30.129Z,6.00
2023-04-26T06:04:02.731Z,6.30
2023-04-26T06:06:35.662Z,6.60
2023-04-26T06:09:08.654Z,7.00
2023-04-26T06:11:40.982Z,7.30
2023-04-26T06:14:20.011Z,7.90
2023-04-26T06:17:02.015Z,8.40
2023-04-26T06:19:34.340Z,9.00
2023-04-26T06:22:06.577Z,9.60
2023-04-26T06:24:38.846Z,10.30
2023-04-26T06:27:12.373Z,11.00
2023-04-26T06:29:45.191Z,11.80
2023-04-26T06:32:17.312Z,12.50
2023-04-26T06:34:49.644Z,13.30
2023-04-26T06:37:21.761Z,14.00
2023-04-26T06:39:54.260Z,14.40
2023-04-26T06:42:27.070Z,14.70
2023-04-26T06:44:59.217Z,15.40
2023-04-26T06:47:31.437Z,15.90
2023-04-26T06:50:05.003Z,16.10
2023-04-26T06:52:37.998Z,16.40
2023-04-26T06:55:10.692Z,17.00
2023-04-26T06:57:42.771Z,17.40
2023-04-26T07:00:15.355Z,18.00
2023-04-26T07:02:48.084Z,18.40
2023-04-26T07:05:20.467Z,18.70
2023-04-26T07:07:53.147Z,18.90
2023-04-26T07:10:26.156Z,19.10
2023-04-26T07:12:58.471Z,19.00
2023-04-26T07:15:32.413Z,19.30
2023-04-26T07:18:04.773Z,19.40
2023-04-26T07:20:36.985Z,19.60
2023-04-26T07:23:09.065Z,19.80
2023-04-26T07:25:41.321Z,19.70
2023-04-26T07:28:13.463Z,19.60
2023-04-26T07:30:46.040Z,19.50
2023-04-26T07:33:18.275Z,19.60
2023-04-26T07:35:58.219Z,19.70
2023-04-26T07:38:32.601Z,19.50
2023-04-26T07:41:05.061Z,19.10
2023-04-26T07:43:38.692Z,19.30
2023-04-26T07:46:10.904Z,19.30
2023-04-26T07:48:43.131Z,19.30
2023-04-26T07:51:15.376Z,19.10
2023-04-26T07:53:48.013Z,18.70
2023-04-26T07:56:20.627Z,18.40
2023-04-26T07:58:53.145Z,18.60
2023-04-26T08:01:26.252Z,18.90
2023-04-26T08:03:59.167Z,19.30
2023-04-26T08:06:31.746Z,19.30
2023-04-26T08:09:05.124Z,19.80
2023-04-26T08:11:37.489Z,19.80
2023-04-26T08:14:09.780Z,19.10
2023-04-26T08:16:43.977Z,18.30
2023-04-26T08:19:16.611Z,18.10
2023-04-26T08:21:49.008Z,18.10
2023-04-26T08:24:21.143Z,17.50
2023-04-26T08:26:53.631Z,16.70
2023-04-26T08:29:28.007Z,15.90
2023-04-26T08:32:00.183Z,15.20
2023-04-26T08:34:32.693Z,14.50
2023-04-26T08:37:06.872Z,13.90
2023-04-26T08:39:39.246Z,13.60
2023-04-26T08:42:17.064Z,13.30
2023-04-26T08:44:49.766Z,13.30
2023-04-26T08:47:43.576Z,13.30
2023-04-26T08:50:23.374Z,13.40
2023-04-26T08:52:56.067Z,13.50
2023-04-26T08:55:28.603Z,13.70
2023-04-26T08:58:01.394Z,13.70
2023-04-26T09:00:36.004Z,13.60
2023-04-26T09:03:08.241Z,13.60
2023-04-26T09:05:44.391Z,13.60
2023-04-26T09:08:20.435Z,13.50
2023-04-26T09:10:53.198Z,13.30
2023-04-26T09:13:29.907Z,13.10
2023-04-26T09:16:04.634Z,12.90
2023-04-26T09:18:57.327Z,12.70
2023-04-26T09:21:30.115Z,12.50
2023-04-26T09:24:06.759Z,12.30
2023-04-26T09:26:39.500Z,12.20
2023-04-26T09:29:19.158Z,12.20
2023-04-26T09:31:52.353Z,12.00
2023-04-26T09:34:24.955Z,12.00
2023-04-26T09:36:57.701Z,12.10
2023-04-26T09:39:42.700Z,12.10
2023-04-26T09:42:19.331Z,12.10
2023-04-26T09:44:53.897Z,12.30
2023-04-26T09:47:37.195Z,12.40
2023-04-26T09:50:09.536Z,12.50
2023-04-26T09:52:44.967Z,12.50
2023-04-26T09:55:37.495Z,12.50
2023-04-26T09:58:10.817Z,12.40
2023-04-26T10:00:43.863Z,12.40
2023-04-26T10:03:22.857Z,12.50
2023-04-26T10:05:56.629Z,12.60
2023-04-26T10:08:29.635Z,12.60
2023-04-26T10:11:11.584Z,12.70
2023-04-26T10:13:50.601Z,12.90
2023-04-26T10:16:24.544Z,13.10
2023-04-26T10:18:57.006Z,13.20
2023-04-26T10:21:35.441Z,13.40
2023-04-26T10:24:10.109Z,13.50
2023-04-26T10:26:53.425Z,13.40
2023-04-26T10:29:53.586Z,13.50
2023-04-26T10:32:56.679Z,13.40
2023-04-26T10:36:22.358Z,13.30
2023-04-26T10:39:23.342Z,13.30
2023-04-26T10:42:25.212Z,13.20
2023-04-26T10:45:26.536Z,13.10
2023-04-26T10:48:23.765Z,13.10
2023-04-26T10:51:12.081Z,13.20
2023-04-26T10:53:47.131Z,13.30
2023-04-26T10:56:33.532Z,13.30
2023-04-26T10:59:39.974Z,13.40
2023-04-26T11:02:45.263Z,13.50
2023-04-26T11:05:36.002Z,13.50
2023-04-26T11:08:28.532Z,13.50
2023-04-26T11:11:02.709Z,13.50
2023-04-26T11:13:41.351Z,13.50
2023-04-26T11:16:16.383Z,13.50
2023-04-26T11:18:49.116Z,13.50
2023-04-26T11:21:27.035Z,13.50
2023-04-26T11:23:59.675Z,13.60
2023-04-26T11:26:35.997Z,13.70
2023-04-26T11:29:10.652Z,13.90
2023-04-26T11:31:54.280Z,14.20
2023-04-26T11:34:35.772Z,14.20
2023-04-26T11:37:09.389Z,14.30
2023-04-26T11:39:45.267Z,14.50
2023-04-26T11:42:17.665Z,14.60
2023-04-26T11:44:59.784Z,14.60
2023-04-26T11:47:34.324Z,14.70
2023-04-26T11:50:09.067Z,14.80
2023-04-26T11:52:42.518Z,14.90
2023-04-26T11:55:15.472Z,15.00
2023-04-26T11:57:48.028Z,14.80
2023-04-26T12:00:21.330Z,14.70
2023-04-26T12:02:57.441Z,14.70
2023-04-26T12:05:36.440Z,14.70
2023-04-26T12:08:11.701Z,14.70
2023-04-26T12:10:47.166Z,14.90
2023-04-26T12:13:20.388Z,15.10
2023-04-26T12:15:52.705Z,15.40
2023-04-26T12:18:32.918Z,15.60
2023-04-26T12:21:05.463Z,15.80
2023-04-26T12:23:39.693Z,15.80
2023-04-26T12:26:12.963Z,15.70
2023-04-26T12:28:45.915Z,15.70
2023-04-26T12:31:18.598Z,15.80
2023-04-26T12:33:50.934Z,16.00
2023-04-26T12:36:23.204Z,16.20
2023-04-26T12:38:56.546Z,16.40
2023-04-26T12:41:29.082Z,16.30
2023-04-26T12:44:01.867Z,16.00
2023-04-26T12:46:36.076Z,15.80
2023-04-26T12:49:08.917Z,15.70
2023-04-26T12:51:41.397Z,15.80
2023-04-26T12:54:14.082Z,15.90
2023-04-26T12:56:46.605Z,15.90
2023-04-26T12:59:19.694Z,15.80
2023-04-26T13:01:51.986Z,15.70
2023-04-26T13:04:24.590Z,15.80
2023-04-26T13:06:57.585Z,15.70
2023-04-26T13:09:30.142Z,15.60
2023-04-26T13:12:02.665Z,15.50
2023-04-26T13:14:35.501Z,15.50
2023-04-26T13:17:11.027Z,15.70
2023-04-26T13:19:43.854Z,15.70
2023-04-26T13:22:16.753Z,15.80
2023-04-26T13:24:49.097Z,15.90
2023-04-26T13:27:21.270Z,15.90
2023-04-26T13:29:54.855Z,16.10
2023-04-26T13:32:27.102Z,16.20
2023-04-26T13:35:00.207Z,16.50
2023-04-26T13:37:34.444Z,16.70
2023-04-26T13:40:07.604Z,16.70
2023-04-26T13:42:43.103Z,16.80
2023-04-26T13:47:48.104Z,17.10
2023-04-26T13:50:20.808Z,16.90
2023-04-26T13:52:53.544Z,16.50
2023-04-26T13:55:25.876Z,16.30
2023-04-26T13:57:58.394Z,16.20
2023-04-26T14:00:31.523Z,16.30
2023-04-26T14:03:04.006Z,16.20
2023-04-26T14:05:36.232Z,16.30
2023-04-26T14:08:08.526Z,16.30
2023-04-26T14:10:41.236Z,16.30
2023-04-26T14:13:14.161Z,16.30
2023-04-26T14:15:47.841Z,16.30
2023-04-26T14:18:20.075Z,16.40
2023-04-26T14:20:52.325Z,16.40
2023-04-26T14:23:24.459Z,16.50
2023-04-26T14:25:56.889Z,16.60
2023-04-26T14:28:29.123Z,16.70
2023-04-26T14:31:09.857Z,16.90
2023-04-26T14:33:44.103Z,17.10
2023-04-26T14:36:17.327Z,17.20
2023-04-26T14:38:50.362Z,17.00
2023-04-26T14:41:23.246Z,16.90
2023-04-26T14:43:56.168Z,16.70
2023-04-26T14:46:28.759Z,16.60
2023-04-26T14:49:01.563Z,16.60
2023-04-26T14:51:34.223Z,16.50
2023-04-26T14:54:07.142Z,16.50
2023-04-26T14:56:39.481Z,16.60
2023-04-26T14:59:11.883Z,16.90
2023-04-26T15:01:44.369Z,17.00
2023-04-26T15:04:16.879Z,16.90
2023-04-26T15:06:49.554Z,17.00
2023-04-26T15:09:21.788Z,17.10
2023-04-26T15:11:54.431Z,17.20
2023-04-26T15:14:27.469Z,17.30
2023-04-26T15:17:00.783Z,17.40
2023-04-26T15:19:33.728Z,17.60
2023-04-26T15:22:07.065Z,17.60
2023-04-26T15:24:39.239Z,17.60
2023-04-26T15:27:11.546Z,17.70
2023-04-26T15:29:43.973Z,17.70
2023-04-26T15:32:16.221Z,17.50
2023-04-26T15:34:48.705Z,17.40
2023-04-26T15:37:21.356Z,17.30
2023-04-26T15:39:53.766Z,17.30
2023-04-26T15:42:26.361Z,17.40
2023-04-26T15:44:58.612Z,17.30
2023-04-26T15:47:31.045Z,17.20
2023-04-26T15:50:06.039Z,16.90
2023-04-26T15:52:39.811Z,16.60
2023-04-26T15:55:12.521Z,16.40
2023-04-26T15:58:05.018Z,16.30
2023-04-26T16:00:37.699Z,16.10
2023-04-26T16:03:10.183Z,15.90
2023-04-26T16:05:42.544Z,15.90
2023-04-26T16:08:21.558Z,15.90
2023-04-26T16:11:01.678Z,15.80
2023-04-26T16:13:35.047Z,15.60
2023-04-26T16:16:11.678Z,15.40
2023-04-26T16:18:44.477Z,15.30
2023-04-26T16:21:17.150Z,15.20
2023-04-26T16:23:51.615Z,15.30
2023-04-26T16:26:24.129Z,15.30
2023-04-26T16:28:57.451Z,15.40
2023-04-26T16:31:30.449Z,15.50
2023-04-26T16:34:03.732Z,15.60
2023-04-26T16:36:36.329Z,15.60
2023-04-26T16:39:08.725Z,15.60
2023-04-26T16:41:43.535Z,15.50
2023-04-26T16:44:16.889Z,15.50
2023-04-26T16:46:49.752Z,15.50
2023-04-26T16:49:22.634Z,15.50
2023-04-26T16:51:58.816Z,15.50
2023-04-26T16:54:32.258Z,15.60
2023-04-26T16:57:04.844Z,15.60
2023-04-26T16:59:37.736Z,15.60
2023-04-26T17:02:10.218Z,15.50
2023-04-26T17:04:44.124Z,15.30
2023-04-26T17:07:17.400Z,15.10
2023-04-26T17:09:53.930Z,15.00
2023-04-26T17:12:26.378Z,14.80
2023-04-26T17:14:58.899Z,14.60
2023-04-26T17:17:31.794Z,14.50
2023-04-26T17:20:06.675Z,14.30
2023-04-26T17:22:40.816Z,14.20
2023-04-26T17:25:13.509Z,14.10
2023-04-26T17:27:46.054Z,14.00
2023-04-26T17:30:19.867Z,13.90
2023-04-26T17:32:53.084Z,13.80
2023-04-26T17:35:25.819Z,13.80
2023-04-26T17:37:58.630Z,13.70
2023-04-26T17:40:31.286Z,13.60
2023-04-26T17:43:04.318Z,13.60
2023-04-26T17:45:37.375Z,13.50
2023-04-26T17:48:13.442Z,13.50
2023-04-26T17:50:46.389Z,13.50
2023-04-26T17:53:19.454Z,13.40
2023-04-26T17:55:53.278Z,13.30
2023-04-26T17:58:26.852Z,13.30
2023-04-26T18:00:59.477Z,13.20
2023-04-26T18:03:35.914Z,13.10
2023-04-26T18:06:09.156Z,13.00
2023-04-26T18:08:42.335Z,12.90
2023-04-26T18:11:14.929Z,12.80
2023-04-26T18:13:49.048Z,12.60
2023-04-26T18:16:22.321Z,12.50
2023-04-26T18:18:54.980Z,12.40
2023-04-26T18:21:28.183Z,12.30
2023-04-26T18:24:01.736Z,12.20
2023-04-26T18:26:35.726Z,12.10
2023-04-26T18:29:09.605Z,12.00
2023-04-26T18:31:42.120Z,11.90
2023-04-26T18:34:15.075Z,11.90
2023-04-26T18:36:48.112Z,11.80
2023-04-26T18:39:21.095Z,11.70
2023-04-26T18:41:54.179Z,11.50
2023-04-26T18:44:27.439Z,11.50
2023-04-26T18:47:00.212Z,11.40
2023-04-26T18:49:33.029Z,11.30
2023-04-26T18:52:08.913Z,11.30
2023-04-26T18:54:42.027Z,11.20
2023-04-26T18:57:15.904Z,11.20
2023-04-26T18:59:53.671Z,11.10
2023-04-26T19:02:28.652Z,11.10
2023-04-26T19:05:02.206Z,11.10
2023-04-26T19:07:39.594Z,11.00
2023-04-26T19:10:15.055Z,11.00
2023-04-26T19:12:49.125Z,11.00
2023-04-26T19:15:22.237Z,11.00
2023-04-26T19:17:55.097Z,11.00
2023-04-26T19:20:28.206Z,11.00
2023-04-26T19:23:01.720Z,11.00
2023-04-26T19:25:35.586Z,11.00
2023-04-26T19:28:09.372Z,10.90
2023-04-26T19:30:42.261Z,10.90
2023-04-26T19:33:15.539Z,10.90
2023-04-26T19:35:48.653Z,10.90
2023-04-26T19:38:29.774Z,10.90
2023-04-26T19:41:02.930Z,10.90
2023-04-26T19:43:36.210Z,10.80
2023-04-26T19:46:15.982Z,10.80
2023-04-26T19:48:49.312Z,10.80
2023-04-26T19:51:25.044Z,10.80
2023-04-26T19:53:58.180Z,10.80
2023-04-26T19:56:31.500Z,10.80
2023-04-26T19:59:05.336Z,10.80
2023-04-26T20:01:39.355Z,10.70
2023-04-26T20:04:12.923Z,10.70
2023-04-26T20:06:45.984Z,10.70
2023-04-26T20:09:20.188Z,10.70
2023-04-26T20:11:53.397Z,10.70
2023-04-26T20:14:26.123Z,10.60
2023-04-26T20:17:03.982Z,10.60
2023-04-26T20:19:37.478Z,10.60
2023-04-26T20:22:10.327Z,10.60
2023-04-26T20:24:42.843Z,10.60
2023-04-26T20:27:15.127Z,10.60
2023-04-26T20:29:47.502Z,10.50
2023-04-26T20:32:20.134Z,10.50
2023-04-26T20:34:52.505Z,10.50
2023-04-26T20:37:24.631Z,10.40
2023-04-26T20:39:58.224Z,10.30
2023-04-26T20:42:30.329Z,10.30
2023-04-26T20:45:03.022Z,10.20
2023-04-26T20:47:37.016Z,10.10
2023-04-26T20:50:10.058Z,10.10
2023-04-26T20:52:42.555Z,10.00
2023-04-26T20:55:14.891Z,10.00
2023-04-26T20:57:47.861Z,9.90
2023-04-26T21:00:20.646Z,9.80
2023-04-26T21:02:53.230Z,9.80
2023-04-26T21:05:25.311Z,9.80
2023-04-26T21:07:57.875Z,9.80
2023-04-26T21:10:30.195Z,9.70
2023-04-26T21:13:03.440Z,9.70
2023-04-26T21:15:35.836Z,9.60
2023-04-26T21:18:08.132Z,9.60
2023-04-26T21:20:40.176Z,9.50
2023-04-26T21:23:12.176Z,9.50
2023-04-26T21:25:46.567Z,9.40
2023-04-26T21:28:20.401Z,9.40
2023-04-26T21:31:04.513Z,9.40
2023-04-26T21:33:37.529Z,9.30
2023-04-26T21:36:09.740Z,9.30
2023-04-26T21:38:42.198Z,9.30
2023-04-26T21:41:14.419Z,9.20
2023-04-26T21:43:46.264Z,9.20
2023-04-26T21:46:18.675Z,9.10
2023-04-26T21:48:50.749Z,9.10
2023-04-26T21:51:22.722Z,9.10
2023-04-26T21:53:58.282Z,9.00
2023-04-26T21:56:30.527Z,9.00
2023-04-26T21:59:02.643Z,9.00
2023-04-26T22:01:35.685Z,8.90
2023-04-26T22:04:08.191Z,8.90
2023-04-26T22:06:40.069Z,8.90
2023-04-26T22:09:12.802Z,8.90
2023-04-26T22:11:45.696Z,8.90
2023-04-26T22:14:17.881Z,8.90
2023-04-26T22:16:50.157Z,8.90
2023-04-26T22:19:22.342Z,8.80
2023-04-26T22:21:56.257Z,8.90
2023-04-26T22:24:28.578Z,8.80
2023-04-26T22:27:00.712Z,8.80
2023-04-26T22:29:34.360Z,8.80
2023-04-26T22:32:06.648Z,8.90
2023-04-26T22:34:40.475Z,8.80
2023-04-26T22:37:21.232Z,8.80
2023-04-26T22:39:53.731Z,8.80
2023-04-26T22:42:27.280Z,8.80
2023-04-26T22:44:59.434Z,8.80
2023-04-26T22:47:31.896Z,8.80
2023-04-26T22:50:04.854Z,8.70
2023-04-26T22:52:38.362Z,8.70
2023-04-26T22:55:10.766Z,8.70
2023-04-26T22:57:42.932Z,8.70
2023-04-26T23:00:16.159Z,8.70
2023-04-26T23:02:50.532Z,8.70
2023-04-26T23:05:22.958Z,8.70
2023-04-26T23:07:55.218Z,8.70
2023-04-26T23:10:27.308Z,8.60
2023-04-26T23:12:59.358Z,8.60
2023-04-26T23:15:32.023Z,8.60
2023-04-26T23:18:05.378Z,8.50
2023-04-26T23:20:37.956Z,8.50
2023-04-26T23:23:10.117Z,8.50
2023-04-26T23:25:42.326Z,8.50
2023-04-26T23:28:14.532Z,8.50
2023-04-26T23:30:46.587Z,8.50
2023-04-26T23:33:19.282Z,8.50
2023-04-26T23:35:54.600Z,8.40
2023-04-26T23:38:26.901Z,8.40
2023-04-26T23:40:59.054Z,8.40
2023-04-26T23:43:31.290Z,8.30
2023-04-26T23:46:03.377Z,8.40
2023-04-26T23:48:35.910Z,8.30
2023-04-26T23:51:08.051Z,8.30
2023-04-26T23:53:40.079Z,8.30
2023-04-26T23:56:12.243Z,8.20
2023-04-26T23:58:44.387Z,8.20
